メインページ
METAR-TAF:

METAR-TAF

空港 :

ウィニペグ・ジェームス・アームストロング・リチャードソン国際空港

ウィニペグ, マニトバ州, カナダ

緯度: 49-54N, 経度: 097-14W, 海抜: 239m

現時点の気象観測

当レポートは52分前の07:00(UTC)に作成
の風 8kt
気温 22°C
湿度 73%
気圧 1009 hPa
視程: 24.1km
高度6400ftの雲はほとんどない
高度26000ftの雲はほとんどない

METAR: CYWG 190700Z 19008KT 15SM FEW064 FEW260 22/17 A2980 RMK SC1CI2 SC TR SLP090 DENSITY ALT 1900FT

時間: 02:52 (07:52 UTC)

予報

当レポートは2時間14分前の05:38(UTC)に作成
予報は19日の 06時(UTC)から 20日の 06時(UTC)まで有効
南/南西の風 12kt
視程: 10km
高度6000ftの雲はほとんどない
高度26000ftの雲は散在している
19日の 1800時(UTC)から
南/南西の風 15kt、最大25ktの突風を伴う
視程: 10km
高度4000ftの雲は散在している
高度9000ftの千切れ雲あり
19日の 18時(UTC)から 19日の 22時(UTC)まで一時的に
視程: 10km
高度4000ftの千切れ雲あり, 積乱雲.
高度8000ftの曇り
弱いにわか雨, 近辺で激しい雷雨
19日の 2200時(UTC)から
南/南西の風 12kt
視程: 10km
高度3000ftの千切れ雲あり
弱いにわか雨
19日の 22時(UTC)から 20日の 06時(UTC)まで一時的に
変向風 15kt、最大25ktの突風を伴う
視程: 4.8km
高度2000ftの千切れ雲あり, 積乱雲.
激しい雷雨, 雨
19日の 22時(UTC)から 19日の 24時(UTC)まで徐々に
変向風 3kt

TAF: CYWG 190538Z 1906/2006 20012KT P6SM FEW060 SCT260 FM191800 20015G25KT P6SM SCT040 BKN090 TEMPO 1918/1922 P6SM -SHRA VCTS BKN040CB OVC080 FM192200 20012KT P6SM -SHRA BKN030 TEMPO 1922/2006 VRB15G25KT 3SM TSRA BKN020CB BECMG 1922/1924 VRB03KT RMK NXT FCST BY 191200Z

4,000以上の空港の気象観測と天気予報(METAR報とTAF報)

利用可能な観測所は地図上に黄色い丸と赤い丸で示す。

丸の上にカーソルを重ねると観測所名を参照できる。

次にクリックすると気象観測と天気予報を参照できる。

マップの切り替え:黒色「×」印の緑ボタンをクリックして拡大、「-」印の緑ボタンをクリックして縮小、緑色の三角印をクリックして隣りの地図に切り替え


METAR-TAF: